Anahola, Hawaii
Current Conditions -  °F | °C
As of 9:53 PM on Saturday 22 Nov 2014 (Local Time) from PHLI Reporting Station
Scattered Clouds Scattered Clouds  
Wind Chill: 24°   Ceiling: Unl
Heat Index: 24°   Visibility: 10mi
Dew Point: 20°   Wind: 10mph
Humidity: 76%   Direction: 90°E
Pressure: 30.07"   Gusts: NA
Location:  22.14°N, 159.31°W
Report Text: PHLI 230753Z AUTO 09009KT 10SM FEW024 SCT040 SCT048 24/20 A3007 RMK AO2 SLP178 T02440200 TSNO $
Loading
Personal Weather Stations






























Interactive Weather Map New forecast layout! Learn more

10-Day Weather Forecast

Advertisements
Track Severe Weather on mobile